createdAt,value
2017-06-03T00:00:14.156Z,0
2017-06-03T00:01:15.583Z,0
2017-06-03T00:02:17.014Z,0
2017-06-03T00:03:18.438Z,0
2017-06-03T00:04:19.866Z,0
2017-06-03T00:05:21.295Z,0
2017-06-03T00:06:22.729Z,0
2017-06-03T00:07:24.157Z,0
2017-06-03T00:08:25.584Z,0
2017-06-03T00:09:27.013Z,0
2017-06-03T00:10:28.437Z,0
2017-06-03T00:11:29.864Z,0
2017-06-03T00:12:31.298Z,0
2017-06-03T00:13:32.725Z,0
2017-06-03T00:14:34.157Z,0
2017-06-03T00:15:35.588Z,0
2017-06-03T00:16:37.027Z,0
2017-06-03T00:17:38.455Z,0
2017-06-03T00:18:39.886Z,0
2017-06-03T00:19:41.315Z,0
2017-06-03T00:20:42.739Z,0
2017-06-03T00:21:44.163Z,0
2017-06-03T00:22:45.589Z,0
2017-06-03T00:23:47.030Z,0
2017-06-03T00:24:48.460Z,0
2017-06-03T00:25:49.889Z,0
2017-06-03T00:26:51.331Z,0
2017-06-03T00:27:52.756Z,0
2017-06-03T00:28:54.184Z,0
2017-06-03T00:29:55.611Z,0
2017-06-03T00:30:57.045Z,0
2017-06-03T00:31:58.483Z,0
2017-06-03T00:32:59.912Z,0
2017-06-03T00:34:01.343Z,0
2017-06-03T00:35:02.862Z,0
2017-06-03T00:36:04.287Z,0
2017-06-03T00:37:05.719Z,0
2017-06-03T00:38:07.147Z,0
2017-06-03T00:39:08.585Z,0
2017-06-03T00:40:10.005Z,0
2017-06-03T00:41:11.439Z,0
2017-06-03T00:42:12.870Z,0
2017-06-03T00:43:14.293Z,0
2017-06-03T00:44:15.729Z,0
2017-06-03T00:45:17.159Z,0
2017-06-03T00:46:18.594Z,0
2017-06-03T00:47:20.037Z,0
2017-06-03T00:48:21.462Z,0
2017-06-03T00:49:22.900Z,0
2017-06-03T00:50:24.324Z,0
2017-06-03T00:51:25.755Z,0
2017-06-03T00:52:27.187Z,0
2017-06-03T00:53:28.609Z,0
2017-06-03T00:54:30.038Z,0
2017-06-03T00:55:31.470Z,0
2017-06-03T00:56:32.895Z,0
2017-06-03T00:57:34.361Z,0
2017-06-03T00:58:36.061Z,0
2017-06-03T00:59:37.530Z,0
2017-06-03T01:00:38.966Z,0
2017-06-03T01:01:40.392Z,0
2017-06-03T01:02:41.819Z,0
2017-06-03T01:03:43.256Z,0
2017-06-03T01:04:44.682Z,0
2017-06-03T01:05:46.117Z,0
2017-06-03T01:06:47.549Z,0
2017-06-03T01:07:48.982Z,0
2017-06-03T01:08:50.403Z,0
2017-06-03T01:09:51.828Z,0
2017-06-03T01:10:53.259Z,0
2017-06-03T01:11:54.680Z,0
2017-06-03T01:12:56.104Z,0
2017-06-03T01:13:57.537Z,0
2017-06-03T01:14:58.966Z,0
2017-06-03T01:16:00.394Z,0
2017-06-03T01:17:01.816Z,0
2017-06-03T01:18:03.249Z,0
2017-06-03T01:19:04.676Z,0
2017-06-03T01:20:06.102Z,0
2017-06-03T01:21:07.525Z,0
2017-06-03T01:22:08.953Z,0
2017-06-03T01:23:10.381Z,0
2017-06-03T01:24:11.809Z,0
2017-06-03T01:25:13.242Z,0
2017-06-03T01:26:14.670Z,0
2017-06-03T01:27:16.096Z,0
2017-06-03T01:28:17.525Z,0
2017-06-03T01:29:18.953Z,0
2017-06-03T01:30:20.382Z,0
2017-06-03T01:31:21.807Z,0
2017-06-03T01:32:23.239Z,0
2017-06-03T01:33:24.670Z,0
2017-06-03T01:34:26.099Z,0
2017-06-03T01:35:27.527Z,0
2017-06-03T01:36:28.954Z,0
2017-06-03T01:37:30.383Z,0
2017-06-03T01:38:31.806Z,0
2017-06-03T01:39:33.234Z,0
2017-06-03T01:40:34.659Z,0
2017-06-03T01:41:36.084Z,0
2017-06-03T01:42:37.519Z,0
2017-06-03T01:43:38.948Z,0
2017-06-03T01:44:40.373Z,0
2017-06-03T01:45:41.803Z,0
2017-06-03T01:46:43.239Z,0
2017-06-03T01:47:44.674Z,0
2017-06-03T01:48:46.105Z,0
2017-06-03T01:49:47.536Z,0
2017-06-03T01:50:48.965Z,0
2017-06-03T01:51:50.392Z,0
2017-06-03T01:52:51.819Z,0
2017-06-03T01:53:53.246Z,0
2017-06-03T01:54:54.676Z,0
2017-06-03T01:55:56.106Z,0
2017-06-03T01:56:57.529Z,0
2017-06-03T01:57:58.962Z,0
2017-06-03T01:59:00.397Z,0
2017-06-03T02:00:02.579Z,0
2017-06-03T02:01:04.008Z,0
2017-06-03T02:02:05.475Z,0
2017-06-03T02:03:06.895Z,0
2017-06-03T02:04:08.322Z,0
2017-06-03T02:05:09.751Z,0
2017-06-03T02:06:11.176Z,0
2017-06-03T02:07:12.615Z,0
2017-06-03T02:08:14.044Z,0
2017-06-03T02:09:15.464Z,0
2017-06-03T02:10:16.894Z,0
2017-06-03T02:11:18.319Z,0
2017-06-03T02:12:19.751Z,0
2017-06-03T02:13:21.172Z,0
2017-06-03T02:14:22.608Z,0
2017-06-03T02:15:24.047Z,0
2017-06-03T02:16:25.473Z,0
2017-06-03T02:17:26.895Z,0
2017-06-03T02:18:28.316Z,0
2017-06-03T02:19:29.746Z,0
2017-06-03T02:20:31.179Z,0
2017-06-03T02:21:32.600Z,0
2017-06-03T02:22:34.028Z,0
2017-06-03T02:23:35.450Z,0
2017-06-03T02:24:36.879Z,0
2017-06-03T02:25:38.301Z,0
2017-06-03T02:26:39.734Z,0
2017-06-03T02:27:41.156Z,0
2017-06-03T02:28:42.588Z,0
2017-06-03T02:29:44.012Z,0
2017-06-03T02:30:45.444Z,0
2017-06-03T02:31:46.872Z,0
2017-06-03T02:32:48.302Z,0
2017-06-03T02:33:49.726Z,0
2017-06-03T02:34:51.174Z,0
2017-06-03T02:35:52.603Z,0
2017-06-03T02:36:54.027Z,0
2017-06-03T02:37:55.454Z,0
2017-06-03T02:38:56.882Z,0
2017-06-03T02:39:58.302Z,0
2017-06-03T02:40:59.732Z,0
2017-06-03T02:42:01.158Z,0
2017-06-03T02:43:02.584Z,0
2017-06-03T02:44:04.027Z,0
2017-06-03T02:45:05.461Z,0
2017-06-03T02:46:07.612Z,0
2017-06-03T02:47:09.045Z,0
2017-06-03T02:48:10.473Z,0
2017-06-03T02:49:11.899Z,0
2017-06-03T02:50:13.329Z,0
2017-06-03T02:51:14.758Z,0
2017-06-03T02:52:16.184Z,0
2017-06-03T02:53:17.610Z,0
2017-06-03T02:54:19.082Z,0
2017-06-03T02:55:20.506Z,0
2017-06-03T02:56:21.933Z,0
2017-06-03T02:57:23.366Z,0
2017-06-03T02:58:24.789Z,0
2017-06-03T02:59:26.214Z,0
2017-06-03T03:00:27.644Z,0
2017-06-03T03:01:29.069Z,0
2017-06-03T03:02:30.495Z,0
2017-06-03T03:03:31.923Z,0
2017-06-03T03:04:33.354Z,0
2017-06-03T03:05:34.794Z,0
2017-06-03T03:06:36.336Z,0
2017-06-03T03:07:37.770Z,0
2017-06-03T03:08:39.192Z,0
2017-06-03T03:09:40.625Z,0
2017-06-03T03:10:42.056Z,0
2017-06-03T03:11:43.489Z,0
2017-06-03T03:12:44.913Z,0
2017-06-03T03:13:46.343Z,0
2017-06-03T03:14:47.780Z,0
2017-06-03T03:15:49.203Z,0
2017-06-03T03:16:50.632Z,0
2017-06-03T03:17:52.063Z,0
2017-06-03T03:18:53.488Z,0
2017-06-03T03:19:54.915Z,0
2017-06-03T03:20:56.340Z,0
2017-06-03T03:21:57.774Z,0
2017-06-03T03:22:59.208Z,0
2017-06-03T03:24:00.635Z,0
2017-06-03T03:25:02.064Z,0
2017-06-03T03:26:03.494Z,0
2017-06-03T03:27:04.923Z,0
2017-06-03T03:28:06.345Z,0
2017-06-03T03:29:07.771Z,0
2017-06-03T03:30:09.203Z,0
2017-06-03T03:31:10.640Z,0
2017-06-03T03:32:12.072Z,0
2017-06-03T03:33:13.497Z,0
2017-06-03T03:34:14.925Z,0
2017-06-03T03:35:16.361Z,0
2017-06-03T03:36:17.789Z,0
2017-06-03T03:37:19.215Z,0
2017-06-03T03:38:20.648Z,0
2017-06-03T03:39:22.079Z,0
2017-06-03T03:40:23.507Z,0
2017-06-03T03:41:24.942Z,0
2017-06-03T03:42:26.375Z,0
2017-06-03T03:43:27.806Z,0
2017-06-03T03:44:29.245Z,0
2017-06-03T03:45:30.660Z,0
2017-06-03T03:46:32.094Z,0
2017-06-03T03:47:33.525Z,0
2017-06-03T03:48:34.958Z,0
2017-06-03T03:49:36.386Z,0
2017-06-03T03:50:37.813Z,0
2017-06-03T03:51:39.244Z,0
2017-06-03T03:52:40.674Z,0
2017-06-03T03:53:42.097Z,0
2017-06-03T03:54:43.530Z,0
2017-06-03T03:55:44.961Z,0
2017-06-03T03:56:46.387Z,0
2017-06-03T03:57:47.810Z,0
2017-06-03T03:58:49.242Z,0
2017-06-03T03:59:50.680Z,0
2017-06-03T04:00:52.109Z,0
2017-06-03T04:01:53.548Z,0
2017-06-03T04:02:54.971Z,0
2017-06-03T04:03:56.405Z,0
2017-06-03T04:04:57.838Z,0
2017-06-03T04:05:59.268Z,0
2017-06-03T04:07:00.701Z,0
2017-06-03T04:08:02.122Z,0
2017-06-03T04:09:03.550Z,0
2017-06-03T04:10:04.981Z,0
2017-06-03T04:11:06.422Z,0
2017-06-03T04:12:07.855Z,0
2017-06-03T04:13:09.290Z,0
2017-06-03T04:14:10.723Z,0
2017-06-03T04:15:12.148Z,0
2017-06-03T04:16:13.573Z,0
2017-06-03T04:17:15.003Z,0
2017-06-03T04:18:16.431Z,5
2017-06-03T04:19:17.863Z,5
2017-06-03T04:20:19.286Z,5
2017-06-03T04:21:20.717Z,5
2017-06-03T04:22:22.150Z,5
2017-06-03T04:23:23.572Z,5
2017-06-03T04:24:25.002Z,5
2017-06-03T04:25:26.431Z,5
2017-06-03T04:26:27.859Z,5
2017-06-03T04:27:29.286Z,5
2017-06-03T04:28:30.713Z,5
2017-06-03T04:29:32.146Z,5
2017-06-03T04:30:33.589Z,0
2017-06-03T04:31:35.015Z,0
2017-06-03T04:32:36.447Z,5
2017-06-03T04:33:37.874Z,5
2017-06-03T04:34:39.306Z,5
2017-06-03T04:35:40.733Z,5
2017-06-03T04:36:42.156Z,5
2017-06-03T04:37:43.588Z,5
2017-06-03T04:38:45.013Z,5
2017-06-03T04:39:46.440Z,10
2017-06-03T04:40:47.873Z,10
2017-06-03T04:41:49.305Z,10
2017-06-03T04:42:50.737Z,10
2017-06-03T04:43:52.171Z,10
2017-06-03T04:44:53.597Z,10
2017-06-03T04:45:55.028Z,10
2017-06-03T04:46:56.455Z,10
2017-06-03T04:47:57.889Z,10
2017-06-03T04:48:59.316Z,10
2017-06-03T04:50:01.437Z,10
2017-06-03T04:51:02.867Z,10
2017-06-03T04:52:04.294Z,10
2017-06-03T04:53:05.796Z,10
2017-06-03T04:54:07.251Z,10
2017-06-03T04:55:08.689Z,10
2017-06-03T04:56:10.114Z,15
2017-06-03T04:57:11.549Z,15
2017-06-03T04:58:12.999Z,10
2017-06-03T04:59:14.421Z,10
2017-06-03T05:00:15.862Z,10
2017-06-03T05:01:17.316Z,10
2017-06-03T05:02:18.747Z,10
2017-06-03T05:03:20.171Z,10
2017-06-03T05:04:21.615Z,10
2017-06-03T05:05:23.051Z,10
2017-06-03T05:06:24.480Z,10
2017-06-03T05:07:25.911Z,10
2017-06-03T05:08:27.351Z,10
2017-06-03T05:09:28.867Z,10
2017-06-03T05:10:30.307Z,10
2017-06-03T05:11:31.746Z,10
2017-06-03T05:12:33.190Z,10
2017-06-03T05:13:34.625Z,10
2017-06-03T05:14:36.057Z,10
2017-06-03T05:15:37.504Z,10
2017-06-03T05:16:38.946Z,5
2017-06-03T05:17:40.375Z,5
2017-06-03T05:18:41.816Z,5
2017-06-03T05:19:43.248Z,5
2017-06-03T05:20:44.684Z,5
2017-06-03T05:21:46.116Z,10
2017-06-03T05:22:47.550Z,10
2017-06-03T05:23:48.982Z,10
2017-06-03T05:24:50.414Z,10
2017-06-03T05:25:51.841Z,10
2017-06-03T05:26:53.268Z,5
2017-06-03T05:27:54.698Z,5
2017-06-03T05:28:56.130Z,5
2017-06-03T05:29:57.566Z,5
2017-06-03T05:30:59.006Z,5
2017-06-03T05:32:00.436Z,5
2017-06-03T05:33:01.866Z,10
2017-06-03T05:34:03.295Z,10
2017-06-03T05:35:04.731Z,10
2017-06-03T05:36:06.175Z,10
2017-06-03T05:37:07.598Z,10
2017-06-03T05:38:09.028Z,10
2017-06-03T05:39:10.463Z,10
2017-06-03T05:40:11.896Z,10
2017-06-03T05:41:13.335Z,5
2017-06-03T05:42:14.771Z,15
2017-06-03T05:43:16.194Z,15
2017-06-03T05:44:17.627Z,15
2017-06-03T05:45:19.058Z,20
2017-06-03T05:46:20.490Z,20
2017-06-03T05:47:21.924Z,20
2017-06-03T05:48:23.358Z,20
2017-06-03T05:49:24.798Z,25
2017-06-03T05:50:26.225Z,25
2017-06-03T05:51:27.657Z,25
2017-06-03T05:52:29.136Z,25
2017-06-03T05:53:30.566Z,25
2017-06-03T05:54:32.012Z,20
2017-06-03T05:55:33.446Z,20
2017-06-03T05:56:34.877Z,20
2017-06-03T05:57:36.305Z,20
2017-06-03T05:58:37.747Z,15
2017-06-03T05:59:39.175Z,15
2017-06-03T06:00:40.604Z,15
2017-06-03T06:01:42.028Z,15
2017-06-03T06:02:43.467Z,15
2017-06-03T06:03:44.897Z,15
2017-06-03T06:04:46.336Z,15
2017-06-03T06:05:47.779Z,15
2017-06-03T06:06:49.216Z,15
2017-06-03T06:07:50.643Z,15
2017-06-03T06:08:52.077Z,20
2017-06-03T06:09:53.507Z,10
2017-06-03T06:10:54.937Z,15
2017-06-03T06:11:56.368Z,20
2017-06-03T06:12:57.801Z,20
2017-06-03T06:13:59.237Z,20
2017-06-03T06:15:00.662Z,20
2017-06-03T06:16:02.102Z,20
2017-06-03T06:17:03.543Z,20
2017-06-03T06:18:04.972Z,20
2017-06-03T06:19:06.408Z,20
2017-06-03T06:20:07.833Z,20
2017-06-03T06:21:09.271Z,25
2017-06-03T06:22:10.695Z,25
2017-06-03T06:23:12.127Z,30
2017-06-03T06:24:13.556Z,35
2017-06-03T06:25:14.985Z,40
2017-06-03T06:26:16.417Z,45
2017-06-03T06:27:17.846Z,50
2017-06-03T06:28:19.275Z,50
2017-06-03T06:29:20.709Z,55
2017-06-03T06:30:22.146Z,55
2017-06-03T06:31:23.581Z,50
2017-06-03T06:32:25.010Z,50
2017-06-03T06:33:26.434Z,55
2017-06-03T06:34:27.861Z,55
2017-06-03T06:35:29.299Z,55
2017-06-03T06:36:30.726Z,50
2017-06-03T06:37:32.162Z,50
2017-06-03T06:38:33.592Z,50
2017-06-03T06:39:35.029Z,50
2017-06-03T06:40:36.456Z,50
2017-06-03T06:41:37.883Z,50
2017-06-03T06:42:39.319Z,50
2017-06-03T06:43:40.746Z,50
2017-06-03T06:44:42.174Z,50
2017-06-03T06:45:43.694Z,50
2017-06-03T06:46:45.172Z,50
2017-06-03T06:47:46.616Z,25
2017-06-03T06:48:48.045Z,40
2017-06-03T06:49:49.480Z,35
2017-06-03T06:50:50.909Z,30
2017-06-03T06:51:52.337Z,30
2017-06-03T06:52:53.770Z,30
2017-06-03T06:53:55.205Z,25
2017-06-03T06:54:56.649Z,30
2017-06-03T06:55:58.076Z,30
2017-06-03T06:56:59.520Z,35
2017-06-03T06:58:00.953Z,45
2017-06-03T06:59:02.390Z,45
2017-06-03T07:00:03.817Z,50
2017-06-03T07:01:05.266Z,55
2017-06-03T07:02:06.697Z,55
2017-06-03T07:03:08.139Z,55
2017-06-03T07:04:09.580Z,55
2017-06-03T07:05:11.115Z,55
2017-06-03T07:06:12.546Z,60
2017-06-03T07:07:13.981Z,60
2017-06-03T07:08:15.418Z,65
2017-06-03T07:09:16.857Z,60
2017-06-03T07:10:18.287Z,60
2017-06-03T07:11:19.735Z,25
2017-06-03T07:12:21.166Z,55
2017-06-03T07:13:22.619Z,55
2017-06-03T07:14:24.026Z,55
2017-06-03T07:15:25.468Z,55
2017-06-03T07:16:26.989Z,55
2017-06-03T07:17:28.421Z,60
2017-06-03T07:18:29.849Z,60
2017-06-03T07:19:31.286Z,60
2017-06-03T07:20:32.727Z,55
2017-06-03T07:21:34.156Z,55
2017-06-03T07:22:35.588Z,55
2017-06-03T07:23:37.022Z,55
2017-06-03T07:24:38.459Z,50
2017-06-03T07:25:39.891Z,45
2017-06-03T07:26:41.334Z,45
2017-06-03T07:27:42.826Z,40
2017-06-03T07:28:44.256Z,35
2017-06-03T07:29:45.697Z,35
2017-06-03T07:30:47.142Z,35
2017-06-03T07:31:48.574Z,35
2017-06-03T07:32:50.017Z,35
2017-06-03T07:33:51.514Z,40
2017-06-03T07:34:52.955Z,40
2017-06-03T07:35:54.385Z,40
2017-06-03T07:36:55.814Z,45
2017-06-03T07:37:57.331Z,50
2017-06-03T07:38:58.762Z,60
2017-06-03T07:40:00.197Z,65
2017-06-03T07:41:01.627Z,70
2017-06-03T07:42:03.064Z,70
2017-06-03T07:43:04.494Z,70
2017-06-03T07:44:05.930Z,75
2017-06-03T07:45:07.452Z,75
2017-06-03T07:46:08.878Z,80
2017-06-03T07:47:10.313Z,80
2017-06-03T07:48:11.752Z,85
2017-06-03T07:49:13.183Z,90
2017-06-03T07:50:14.618Z,85
2017-06-03T07:51:16.056Z,90
2017-06-03T07:52:17.514Z,85
2017-06-03T07:53:19.667Z,80
2017-06-03T07:54:21.096Z,80
2017-06-03T07:55:22.529Z,80
2017-06-03T07:56:24.585Z,80
2017-06-03T07:57:26.016Z,80
2017-06-03T07:58:27.544Z,85
2017-06-03T07:59:28.975Z,90
2017-06-03T08:00:30.409Z,90
2017-06-03T08:01:31.838Z,85
2017-06-03T08:02:33.273Z,80
2017-06-03T08:03:34.704Z,80
2017-06-03T08:04:36.141Z,85
2017-06-03T08:05:37.568Z,85
2017-06-03T08:06:39.002Z,90
2017-06-03T08:07:40.439Z,90
2017-06-03T08:08:41.866Z,95
2017-06-03T08:09:43.299Z,100
2017-06-03T08:10:44.736Z,100
2017-06-03T08:11:46.169Z,90
2017-06-03T08:12:47.599Z,90
2017-06-03T08:13:49.031Z,85
2017-06-03T08:14:50.465Z,80
2017-06-03T08:15:51.895Z,75
2017-06-03T08:16:53.335Z,80
2017-06-03T08:17:54.773Z,80
2017-06-03T08:18:56.208Z,80
2017-06-03T08:19:57.649Z,80
2017-06-03T08:20:59.083Z,85
2017-06-03T08:22:00.520Z,90
2017-06-03T08:23:01.950Z,95
2017-06-03T08:24:03.388Z,95
2017-06-03T08:25:04.831Z,100
2017-06-03T08:26:06.269Z,105
2017-06-03T08:27:07.705Z,95
2017-06-03T08:28:09.137Z,95
2017-06-03T08:29:10.578Z,100
2017-06-03T08:30:12.013Z,105
2017-06-03T08:31:13.452Z,105
2017-06-03T08:32:14.888Z,105
2017-06-03T08:33:16.320Z,105
2017-06-03T08:34:17.759Z,115
2017-06-03T08:35:19.200Z,115
2017-06-03T08:36:20.644Z,125
2017-06-03T08:37:22.080Z,120
2017-06-03T08:38:23.512Z,105
2017-06-03T08:39:24.959Z,105
2017-06-03T08:40:26.393Z,105
2017-06-03T08:41:27.834Z,105
2017-06-03T08:42:29.268Z,105
2017-06-03T08:43:30.700Z,105
2017-06-03T08:44:32.139Z,105
2017-06-03T08:45:33.574Z,105
2017-06-03T08:46:35.067Z,105
2017-06-03T08:47:36.506Z,115
2017-06-03T08:48:37.932Z,115
2017-06-03T08:49:39.398Z,125
2017-06-03T08:50:40.814Z,120
2017-06-03T08:51:42.250Z,130
2017-06-03T08:52:43.690Z,125
2017-06-03T08:53:45.160Z,105
2017-06-03T08:54:46.590Z,110
2017-06-03T08:55:48.027Z,105
2017-06-03T08:56:49.516Z,115
2017-06-03T08:57:50.949Z,115
2017-06-03T08:58:52.391Z,110
2017-06-03T08:59:53.848Z,115
2017-06-03T09:00:55.304Z,115
2017-06-03T09:01:57.402Z,115
2017-06-03T09:02:58.844Z,110
2017-06-03T09:04:00.276Z,115
2017-06-03T09:05:01.715Z,115
2017-06-03T09:06:03.145Z,125
2017-06-03T09:07:04.579Z,120
2017-06-03T09:08:06.025Z,120
2017-06-03T09:09:07.455Z,120
2017-06-03T09:10:08.897Z,120
2017-06-03T09:11:10.332Z,120
2017-06-03T09:12:11.762Z,115
2017-06-03T09:13:13.196Z,115
2017-06-03T09:14:14.640Z,115
2017-06-03T09:15:16.074Z,115
2017-06-03T09:16:17.522Z,115
2017-06-03T09:17:18.966Z,115
2017-06-03T09:18:20.943Z,110
2017-06-03T09:19:22.378Z,115
2017-06-03T09:20:23.820Z,110
2017-06-03T09:21:25.250Z,115
2017-06-03T09:22:26.688Z,115
2017-06-03T09:23:28.121Z,115
2017-06-03T09:24:29.561Z,115
2017-06-03T09:25:31.002Z,115
2017-06-03T09:26:32.441Z,120
2017-06-03T09:27:33.881Z,120
2017-06-03T09:28:35.317Z,125
2017-06-03T09:29:36.752Z,125
2017-06-03T09:30:39.069Z,120
2017-06-03T09:31:41.925Z,115
2017-06-03T09:32:43.363Z,125
2017-06-03T09:33:44.800Z,120
2017-06-03T09:34:46.229Z,120
2017-06-03T09:35:47.669Z,125
2017-06-03T09:36:49.097Z,120
2017-06-03T09:37:50.549Z,120
2017-06-03T09:38:51.987Z,125
2017-06-03T09:39:53.427Z,115
2017-06-03T09:40:54.859Z,70
2017-06-03T09:41:56.299Z,115
2017-06-03T09:42:57.736Z,45
2017-06-03T09:43:59.169Z,115
2017-06-03T09:45:00.598Z,120
2017-06-03T09:46:02.041Z,120
2017-06-03T09:47:03.479Z,115
2017-06-03T09:48:04.918Z,110
2017-06-03T09:49:06.353Z,120
2017-06-03T09:50:07.787Z,120
2017-06-03T09:51:09.232Z,125
2017-06-03T09:52:10.673Z,125
2017-06-03T09:53:12.099Z,130
2017-06-03T09:54:13.540Z,125
2017-06-03T09:55:14.976Z,125
2017-06-03T09:56:16.408Z,130
2017-06-03T09:57:17.847Z,135
2017-06-03T09:58:19.290Z,135
2017-06-03T09:59:20.728Z,140
2017-06-03T10:00:22.171Z,140
2017-06-03T10:01:23.609Z,140
2017-06-03T10:02:25.043Z,145
2017-06-03T10:03:26.477Z,150
2017-06-03T10:04:27.919Z,155
2017-06-03T10:05:29.353Z,155
2017-06-03T10:06:30.783Z,155
2017-06-03T10:07:32.215Z,160
2017-06-03T10:08:33.660Z,165
2017-06-03T10:09:35.103Z,160
2017-06-03T10:10:36.528Z,160
2017-06-03T10:11:37.960Z,160
2017-06-03T10:12:39.405Z,160
2017-06-03T10:13:40.845Z,160
2017-06-03T10:14:42.282Z,160
2017-06-03T10:15:43.738Z,160
2017-06-03T10:16:45.168Z,155
2017-06-03T10:17:46.607Z,160
2017-06-03T10:18:48.043Z,160
2017-06-03T10:19:49.479Z,165
2017-06-03T10:20:52.388Z,160
2017-06-03T10:21:53.824Z,165
2017-06-03T10:22:55.262Z,165
2017-06-03T10:23:56.692Z,170
2017-06-03T10:24:58.130Z,170
2017-06-03T10:25:59.571Z,170
2017-06-03T10:27:01.009Z,175
2017-06-03T10:28:02.451Z,180
2017-06-03T10:29:03.887Z,175
2017-06-03T10:30:05.790Z,175
2017-06-03T10:31:07.236Z,175
2017-06-03T10:32:08.670Z,175
2017-06-03T10:33:10.606Z,170
2017-06-03T10:34:12.039Z,165
2017-06-03T10:35:13.485Z,160
2017-06-03T10:36:14.918Z,165
2017-06-03T10:37:16.361Z,170
2017-06-03T10:38:17.798Z,175
2017-06-03T10:39:19.241Z,175
2017-06-03T10:40:20.678Z,180
2017-06-03T10:41:22.112Z,185
2017-06-03T10:42:23.551Z,190
2017-06-03T10:43:24.987Z,195
2017-06-03T10:44:26.427Z,200
2017-06-03T10:45:27.867Z,200
2017-06-03T10:46:29.304Z,200
2017-06-03T10:47:30.750Z,200
2017-06-03T10:48:32.185Z,195
2017-06-03T10:49:33.630Z,195
2017-06-03T10:50:35.071Z,195
2017-06-03T10:51:36.504Z,200
2017-06-03T10:52:38.607Z,200
2017-06-03T10:53:39.323Z,200
2017-06-03T10:54:40.764Z,200
2017-06-03T10:55:42.201Z,210
2017-06-03T10:56:43.638Z,200
2017-06-03T10:57:45.067Z,205
2017-06-03T10:58:46.506Z,200
2017-06-03T10:59:47.946Z,205
2017-06-03T11:00:49.388Z,205
2017-06-03T11:01:50.831Z,200
2017-06-03T11:02:52.269Z,210
2017-06-03T11:03:53.713Z,210
2017-06-03T11:04:55.148Z,215
2017-06-03T11:05:56.585Z,225
2017-06-03T11:06:58.020Z,215
2017-06-03T11:07:59.457Z,185
2017-06-03T11:09:00.904Z,155
2017-06-03T11:10:02.346Z,130
2017-06-03T11:11:03.779Z,160
2017-06-03T11:12:05.220Z,160
2017-06-03T11:13:06.659Z,180
2017-06-03T11:14:08.100Z,205
2017-06-03T11:15:09.534Z,205
2017-06-03T11:16:10.976Z,220
2017-06-03T11:17:12.415Z,220
2017-06-03T11:18:13.859Z,225
2017-06-03T11:19:15.300Z,205
2017-06-03T11:20:16.735Z,200
2017-06-03T11:21:18.182Z,210
2017-06-03T11:22:19.618Z,210
2017-06-03T11:23:21.055Z,200
2017-06-03T11:24:22.500Z,200
2017-06-03T11:25:23.946Z,195
2017-06-03T11:26:25.385Z,190
2017-06-03T11:27:26.823Z,175
2017-06-03T11:28:28.256Z,205
2017-06-03T11:29:29.688Z,250
2017-06-03T11:30:31.121Z,260
2017-06-03T11:31:32.570Z,240
2017-06-03T11:32:33.997Z,225
2017-06-03T11:33:35.436Z,240
2017-06-03T11:34:36.873Z,235
2017-06-03T11:35:38.304Z,230
2017-06-03T11:36:39.745Z,185
2017-06-03T11:37:41.203Z,200
2017-06-03T11:38:42.641Z,205
2017-06-03T11:39:44.079Z,215
2017-06-03T11:40:45.521Z,225
2017-06-03T11:41:46.963Z,230
2017-06-03T11:42:48.403Z,240
2017-06-03T11:43:49.841Z,240
2017-06-03T11:44:51.276Z,230
2017-06-03T11:45:52.713Z,220
2017-06-03T11:46:54.148Z,230
2017-06-03T11:47:55.585Z,215
2017-06-03T11:48:57.029Z,220
2017-06-03T11:49:58.468Z,195
2017-06-03T11:50:59.903Z,180
2017-06-03T11:52:01.345Z,175
2017-06-03T11:53:02.787Z,180
2017-06-03T11:54:04.707Z,185
2017-06-03T11:55:06.144Z,190
2017-06-03T11:56:07.588Z,200
2017-06-03T11:57:09.029Z,215
2017-06-03T11:58:10.469Z,215
2017-06-03T11:59:11.923Z,230
2017-06-03T12:00:13.355Z,235
2017-06-03T12:01:14.795Z,245
2017-06-03T12:02:16.233Z,240
2017-06-03T12:03:17.672Z,230
2017-06-03T12:04:19.109Z,225
2017-06-03T12:05:20.551Z,225
2017-06-03T12:06:21.990Z,220
2017-06-03T12:07:23.430Z,225
2017-06-03T12:08:24.875Z,220
2017-06-03T12:09:26.324Z,215
2017-06-03T12:10:27.752Z,205
2017-06-03T12:11:29.194Z,200
2017-06-03T12:12:30.630Z,195
2017-06-03T12:13:32.067Z,200
2017-06-03T12:14:33.501Z,205
2017-06-03T12:15:34.937Z,200
2017-06-03T12:16:36.380Z,200
2017-06-03T12:17:37.823Z,210
2017-06-03T12:18:39.262Z,210
2017-06-03T12:19:40.700Z,210
2017-06-03T12:20:42.143Z,205
2017-06-03T12:21:43.584Z,200
2017-06-03T12:22:45.020Z,200
2017-06-03T12:23:46.455Z,200
2017-06-03T12:24:47.893Z,200
2017-06-03T12:25:49.348Z,205
2017-06-03T12:26:50.779Z,205
2017-06-03T12:27:52.217Z,210
2017-06-03T12:28:53.656Z,220
2017-06-03T12:29:55.097Z,220
2017-06-03T12:30:56.543Z,210
2017-06-03T12:31:57.982Z,215
2017-06-03T12:32:59.426Z,210
2017-06-03T12:34:00.870Z,200
2017-06-03T12:35:02.313Z,190
2017-06-03T12:36:03.748Z,180
2017-06-03T12:37:05.188Z,180
2017-06-03T12:38:06.623Z,175
2017-06-03T12:39:08.062Z,195
2017-06-03T12:40:09.499Z,240
2017-06-03T12:41:10.942Z,260
2017-06-03T12:42:12.380Z,255
2017-06-03T12:43:13.819Z,260
2017-06-03T12:44:15.262Z,255
2017-06-03T12:45:16.699Z,250
2017-06-03T12:46:18.140Z,230
2017-06-03T12:47:19.585Z,220
2017-06-03T12:48:21.025Z,195
2017-06-03T12:49:22.460Z,180
2017-06-03T12:50:23.892Z,175
2017-06-03T12:51:25.325Z,170
2017-06-03T12:52:26.763Z,190
2017-06-03T12:53:28.200Z,215
2017-06-03T12:54:29.636Z,200
2017-06-03T12:55:31.082Z,190
2017-06-03T12:56:32.516Z,180
2017-06-03T12:57:33.964Z,160
2017-06-03T12:58:35.402Z,155
2017-06-03T12:59:36.836Z,155
2017-06-03T13:00:38.280Z,160
2017-06-03T13:01:39.723Z,175
2017-06-03T13:02:41.163Z,185
2017-06-03T13:03:42.601Z,200
2017-06-03T13:04:44.040Z,235
2017-06-03T13:05:45.498Z,250
2017-06-03T13:06:46.964Z,240
2017-06-03T13:07:48.380Z,235
2017-06-03T13:08:49.821Z,230
2017-06-03T13:09:51.253Z,220
2017-06-03T13:10:52.685Z,235
2017-06-03T13:11:54.126Z,210
2017-06-03T13:12:55.569Z,185
2017-06-03T13:13:57.007Z,165
2017-06-03T13:14:58.447Z,185
2017-06-03T13:15:59.891Z,195
2017-06-03T13:17:01.331Z,225
2017-06-03T13:18:02.771Z,230
2017-06-03T13:19:04.206Z,225
2017-06-03T13:20:05.653Z,225
2017-06-03T13:21:07.090Z,225
2017-06-03T13:22:08.521Z,220
2017-06-03T13:23:09.957Z,210
2017-06-03T13:24:11.401Z,210
2017-06-03T13:25:12.839Z,205
2017-06-03T13:26:14.282Z,225
2017-06-03T13:27:15.719Z,225
2017-06-03T13:28:17.158Z,215
2017-06-03T13:29:18.589Z,200
2017-06-03T13:30:20.032Z,185
2017-06-03T13:31:21.468Z,155
2017-06-03T13:32:22.909Z,150
2017-06-03T13:33:24.349Z,160
2017-06-03T13:34:25.789Z,165
2017-06-03T13:35:27.221Z,190
2017-06-03T13:36:28.657Z,205
2017-06-03T13:37:30.100Z,205
2017-06-03T13:38:31.550Z,210
2017-06-03T13:39:32.989Z,235
2017-06-03T13:40:34.426Z,240
2017-06-03T13:41:35.870Z,240
2017-06-03T13:42:37.330Z,240
2017-06-03T13:43:38.768Z,245
2017-06-03T13:44:40.205Z,255
2017-06-03T13:45:41.640Z,245
2017-06-03T13:46:43.078Z,225
2017-06-03T13:47:44.518Z,185
2017-06-03T13:48:45.960Z,195
2017-06-03T13:49:47.396Z,355
2017-06-03T13:50:48.839Z,1105
2017-06-03T13:51:50.281Z,325
2017-06-03T13:52:51.720Z,455
2017-06-03T13:53:53.166Z,170
2017-06-03T13:54:54.622Z,130
2017-06-03T13:55:56.062Z,110
2017-06-03T13:56:57.500Z,105
2017-06-03T13:57:58.935Z,95
2017-06-03T13:59:00.375Z,90
2017-06-03T14:00:01.819Z,90
2017-06-03T14:01:03.261Z,90
2017-06-03T14:02:04.696Z,90
2017-06-03T14:03:06.138Z,90
2017-06-03T14:04:07.567Z,90
2017-06-03T14:05:09.006Z,90
2017-06-03T14:06:10.445Z,90
2017-06-03T14:07:11.882Z,90
2017-06-03T14:08:13.330Z,85
2017-06-03T14:09:14.767Z,80
2017-06-03T14:10:16.209Z,70
2017-06-03T14:11:17.720Z,65
2017-06-03T14:12:19.166Z,60
2017-06-03T14:13:20.600Z,55
2017-06-03T14:14:22.029Z,45
2017-06-03T14:15:23.465Z,40
2017-06-03T14:16:24.905Z,35
2017-06-03T14:17:26.340Z,25
2017-06-03T14:18:27.785Z,15
2017-06-03T14:19:29.275Z,10
2017-06-03T14:20:30.705Z,10
2017-06-03T14:21:32.154Z,10
2017-06-03T14:22:33.589Z,10
2017-06-03T14:23:35.062Z,10
2017-06-03T14:24:36.505Z,10
2017-06-03T14:25:37.941Z,5
2017-06-03T14:26:39.396Z,5
2017-06-03T14:27:40.828Z,5
2017-06-03T14:28:42.261Z,5
2017-06-03T14:29:43.701Z,5
2017-06-03T14:30:45.138Z,5
2017-06-03T14:31:46.562Z,5
2017-06-03T14:32:47.998Z,5
2017-06-03T14:33:49.440Z,5
2017-06-03T14:34:50.877Z,5